METAR Formatted Surface Weather Observation
Issued by NWS

Home | Current Version | Previous Version | Text Only | Print | Product List | Glossary On
Versions: 1 2 3 4 5 6 7 8 9 10 11 12 13 14 15 16 17 18 19 20 21 22 23 24 25 26 27 28 29 30 31 32 33 34 35 36 37 38 39 40 41 42 43 44 45 46 47 48 49 50
000
SAUS44 KMRX 050003
MTRGDP
METAR KGDP 042351Z AUTO 05028KT 7SM -RA FEW019 SCT085 14/12 A2990
RMK AO2 PK WND 07035/2302 WSHFT 2250 RAE20B44 SLP071 P0038 60041
T01390122 10228 20133 58009



USA.gov is the U.S. government's official web portal to all federal, state and local government web resources and services.